Time;durP1;ratioP1;P1;durP2;ratioP2;P2;SDS_P1;SDS_P2;PMS_P1;PMS_P2;Temp;Humidity;BMP_temperature;BMP_pressure;BME280_temperature;BME280_humidity;BME280_pressure;Samples;Min_cycle;Max_cycle;Signal;HPM_P1;HPM_P2
2023/06/06 00:00:15;;;;;;;7.05;4.03;;;13.30;99.90;;;;;;4957143;29;20114;-90
2023/06/06 00:02:43;;;;;;;7.93;3.83;;;13.30;99.90;;;;;;4953466;28;20039;-90
2023/06/06 00:05:11;;;;;;;8.98;4.40;;;13.30;99.90;;;;;;4964830;28;20502;-90
2023/06/06 00:07:40;;;;;;;7.13;4.28;;;13.30;99.90;;;;;;4977255;28;20038;-91
2023/06/06 00:10:08;;;;;;;7.35;4.35;;;13.30;99.90;;;;;;4979687;28;20034;-90
2023/06/06 00:12:34;;;;;;;7.38;3.65;;;13.20;99.90;;;;;;4954095;28;20039;-90
2023/06/06 00:15:02;;;;;;;8.93;5.38;;;13.20;99.90;;;;;;4961625;28;20082;-90
2023/06/06 00:17:29;;;;;;;10.10;4.68;;;13.20;99.90;;;;;;4958238;28;20486;-90
2023/06/06 00:19:56;;;;;;;8.50;4.40;;;13.10;99.90;;;;;;4957661;28;20482;-89
2023/06/06 00:22:23;;;;;;;8.93;4.28;;;13.00;99.90;;;;;;4959893;28;20031;-90
2023/06/06 00:24:52;;;;;;;8.13;4.90;;;13.00;99.90;;;;;;4954163;28;20100;-90
2023/06/06 00:27:19;;;;;;;9.20;4.20;;;12.90;99.90;;;;;;4976759;28;20121;-90
2023/06/06 00:29:48;;;;;;;7.60;4.10;;;12.90;99.90;;;;;;4975351;28;20043;-90
2023/06/06 00:32:15;;;;;;;9.95;4.97;;;12.90;99.90;;;;;;4955794;28;20615;-90
2023/06/06 00:34:41;;;;;;;8.90;4.45;;;12.90;99.90;;;;;;4955745;28;20057;-90
2023/06/06 00:37:06;;;;;;;7.82;4.05;;;12.90;99.90;;;;;;4974145;28;20489;-91
2023/06/06 00:39:32;;;;;;;10.52;4.88;;;12.90;99.90;;;;;;4956907;28;20452;-90
2023/06/06 00:41:58;;;;;;;8.35;4.07;;;12.90;99.90;;;;;;4957036;29;20402;-90
2023/06/06 00:44:26;;;;;;;8.77;4.70;;;12.90;99.90;;;;;;4958116;28;20149;-90
2023/06/06 00:46:51;;;;;;;9.77;4.85;;;12.90;99.90;;;;;;4942258;28;20052;-90
2023/06/06 00:49:18;;;;;;;8.88;3.97;;;12.90;99.90;;;;;;4955040;29;20118;-90
2023/06/06 00:51:46;;;;;;;10.10;5.22;;;12.90;99.90;;;;;;4953966;28;20047;-91
2023/06/06 00:54:13;;;;;;;8.00;3.92;;;12.80;99.90;;;;;;4969542;28;20047;-90
2023/06/06 00:56:43;;;;;;;8.55;3.88;;;12.80;99.90;;;;;;4956552;29;20039;-90
2023/06/06 00:59:10;;;;;;;10.23;3.97;;;12.80;99.90;;;;;;4952242;29;20386;-90
2023/06/06 01:01:36;;;;;;;7.30;4.03;;;12.80;99.90;;;;;;4958060;28;20039;-90
2023/06/06 01:04:10;;;;;;;9.73;4.60;;;12.80;99.90;;;;;;4953352;29;20039;-90
2023/06/06 01:06:42;;;;;;;9.52;4.32;;;12.70;99.90;;;;;;4951791;28;20058;-91
2023/06/06 01:09:13;;;;;;;9.30;4.20;;;12.80;99.90;;;;;;4956791;28;20130;-90
2023/06/06 01:11:47;;;;;;;9.15;4.03;;;12.70;99.90;;;;;;4957836;29;20047;-90
2023/06/06 01:14:18;;;;;;;;;;;12.70;99.90;;;;;;4956979;29;20153;-91
2023/06/06 01:16:49;;;;;;;7.95;4.50;;;12.70;99.90;;;;;;4955815;28;19965;-90
2023/06/06 01:19:19;;;;;;;12.02;5.38;;;12.60;99.90;;;;;;4949090;29;20075;-90
2023/06/06 01:21:46;;;;;;;7.35;4.03;;;12.70;99.90;;;;;;4955601;29;20044;-89
2023/06/06 01:24:12;;;;;;;9.85;5.05;;;12.60;99.90;;;;;;4952235;29;20086;-90
2023/06/06 01:26:39;;;;;;;8.07;3.95;;;12.60;99.90;;;;;;4957659;29;20039;-90
2023/06/06 01:29:04;;;;;;;13.43;4.93;;;12.60;99.90;;;;;;4962005;28;20054;-89
2023/06/06 01:31:41;;;;;;;7.38;4.45;;;12.60;99.90;;;;;;4939403;29;20051;-90
2023/06/06 01:34:20;;;;;;;9.60;4.63;;;12.50;99.90;;;;;;4957519;29;20050;-89
2023/06/06 01:37:01;;;;;;;8.88;4.28;;;12.50;99.90;;;;;;4949633;29;20070;-90
2023/06/06 01:39:28;;;;;;;9.98;4.90;;;12.50;99.90;;;;;;4957245;29;20053;-90
2023/06/06 01:41:58;;;;;;;7.20;4.15;;;12.50;99.90;;;;;;4948617;29;20038;-90
2023/06/06 01:44:28;;;;;;;10.65;5.18;;;12.50;99.90;;;;;;4954308;29;20078;-90
2023/06/06 01:46:54;;;;;;;9.45;4.35;;;12.50;99.90;;;;;;4955334;28;20050;-89
2023/06/06 01:49:21;;;;;;;7.85;4.85;;;12.40;99.90;;;;;;4977091;28;20059;-90
2023/06/06 01:51:47;;;;;;;11.38;4.53;;;12.40;99.90;;;;;;4986170;28;20051;-90
2023/06/06 01:54:13;;;;;;;7.65;4.40;;;12.40;99.90;;;;;;4968680;28;20569;-90
2023/06/06 01:56:39;;;;;;;7.63;4.38;;;12.40;99.90;;;;;;4967715;28;20042;-90
2023/06/06 01:59:05;;;;;;;9.25;4.43;;;12.60;99.90;;;;;;4964462;28;20038;-90
2023/06/06 02:01:31;;;;;;;8.70;4.50;;;12.50;99.90;;;;;;4960215;29;20051;-89
2023/06/06 02:04:00;;;;;;;12.27;5.65;;;12.50;99.90;;;;;;4968569;28;20039;-90
2023/06/06 02:06:25;;;;;;;8.52;4.25;;;12.50;99.90;;;;;;4973762;28;20077;-90
2023/06/06 02:08:51;;;;;;;7.57;3.83;;;12.40;99.90;;;;;;4973762;28;20051;-90
2023/06/06 02:11:17;;;;;;;9.30;5.50;;;12.40;99.90;;;;;;4975131;28;20026;-90
2023/06/06 02:13:43;;;;;;;12.85;5.93;;;12.30;99.90;;;;;;4991937;28;20535;-90
2023/06/06 02:16:08;;;;;;;17.55;6.32;;;12.30;99.90;;;;;;4990984;28;20035;-89
2023/06/06 02:18:34;;;;;;;11.82;6.38;;;12.30;99.90;;;;;;4990998;28;20089;-91
2023/06/06 02:21:00;;;;;;;9.00;4.20;;;12.20;99.90;;;;;;4988559;28;20074;-90
2023/06/06 02:23:26;;;;;;;8.20;4.93;;;12.20;99.90;;;;;;4967608;28;20043;-90
2023/06/06 02:25:51;;;;;;;11.07;6.47;;;12.30;99.90;;;;;;4984330;28;20055;-90
2023/06/06 02:28:17;;;;;;;10.88;5.90;;;12.30;99.90;;;;;;4949718;28;20058;-90
2023/06/06 02:30:43;;;;;;;11.88;6.22;;;12.30;99.90;;;;;;4958040;29;20109;-90
2023/06/06 02:33:08;;;;;;;11.57;4.50;;;12.30;99.90;;;;;;4981441;28;20069;-90
2023/06/06 02:35:35;;;;;;;11.45;5.43;;;12.20;99.90;;;;;;4961058;28;20097;-90
2023/06/06 02:38:00;;;;;;;10.50;5.20;;;12.20;99.90;;;;;;4974599;28;20046;-90
2023/06/06 02:40:28;;;;;;;12.48;5.60;;;12.20;99.90;;;;;;4960752;28;20039;-90
2023/06/06 02:42:54;;;;;;;13.15;6.55;;;12.20;99.90;;;;;;4958302;28;20039;-90
2023/06/06 02:45:21;;;;;;;11.30;5.72;;;12.20;99.90;;;;;;4977212;28;20043;-90
2023/06/06 02:47:46;;;;;;;11.27;5.53;;;12.10;99.90;;;;;;4955360;28;20062;-89
2023/06/06 02:50:12;;;;;;;12.45;6.70;;;12.10;99.90;;;;;;4979536;28;20121;-89
2023/06/06 02:52:38;;;;;;;12.32;6.13;;;12.10;99.90;;;;;;4960315;28;20046;-90
2023/06/06 02:55:04;;;;;;;9.35;5.20;;;12.30;99.90;;;;;;4980825;28;20104;-90
2023/06/06 02:57:30;;;;;;;10.25;5.53;;;12.00;99.90;;;;;;4964399;28;20130;-91
2023/06/06 02:59:58;;;;;;;12.50;5.60;;;12.00;99.90;;;;;;4963672;28;20085;-90
2023/06/06 03:02:24;;;;;;;11.23;5.70;;;12.00;99.90;;;;;;4981300;28;20074;-89
2023/06/06 03:04:50;;;;;;;15.25;7.35;;;12.00;99.90;;;;;;4979781;28;20031;-89
2023/06/06 03:07:16;;;;;;;8.82;4.85;;;11.90;99.90;;;;;;4960341;28;20101;-90
2023/06/06 03:09:42;;;;;;;11.80;6.40;;;11.90;99.90;;;;;;4958759;28;20114;-90
2023/06/06 03:12:08;;;;;;;12.18;6.22;;;11.90;99.90;;;;;;4977586;28;20077;-89
2023/06/06 03:14:34;;;;;;;11.10;5.68;;;11.90;99.90;;;;;;4945448;28;20042;-90
2023/06/06 03:17:00;;;;;;;13.45;5.53;;;11.90;99.90;;;;;;4941564;28;20043;-90
2023/06/06 03:19:25;;;;;;;14.95;7.63;;;11.90;99.90;;;;;;4964548;28;20042;-90
2023/06/06 03:21:51;;;;;;;10.35;5.25;;;11.80;99.90;;;;;;4976784;28;20035;-90
2023/06/06 03:24:18;;;;;;;10.25;5.85;;;12.00;99.90;;;;;;4979222;28;20475;-89
2023/06/06 03:26:49;;;;;;;11.70;5.00;;;11.90;99.90;;;;;;4963167;28;20039;-90
2023/06/06 03:29:15;;;;;;;10.85;5.47;;;11.80;99.90;;;;;;4960121;28;20117;-90
2023/06/06 03:31:41;;;;;;;13.05;5.38;;;11.80;99.90;;;;;;4983846;28;20034;-89
2023/06/06 03:34:09;;;;;;;11.40;7.18;;;11.80;99.90;;;;;;4980666;28;20043;-90
2023/06/06 03:36:35;;;;;;;13.50;6.82;;;11.80;99.90;;;;;;4977153;28;20479;-90
2023/06/06 03:39:01;;;;;;;10.07;5.10;;;11.80;99.90;;;;;;4966336;28;20043;-90
2023/06/06 03:41:27;;;;;;;14.23;6.30;;;11.70;99.90;;;;;;4984311;28;20070;-90
2023/06/06 03:43:53;;;;;;;15.05;6.35;;;11.80;99.90;;;;;;4964234;28;20047;-90
2023/06/06 03:46:19;;;;;;;13.88;7.18;;;11.80;99.90;;;;;;4987964;28;20050;-89
2023/06/06 03:48:45;;;;;;;15.30;6.22;;;11.80;99.90;;;;;;4961604;28;20042;-90
2023/06/06 03:51:11;;;;;;;11.73;6.47;;;11.70;99.90;;;;;;4975405;28;20046;-90
2023/06/06 03:53:37;;;;;;;11.52;5.93;;;11.70;99.90;;;;;;4981322;28;20039;-90
2023/06/06 03:56:06;;;;;;;12.00;6.40;;;11.70;99.90;;;;;;4966370;28;20090;-90
2023/06/06 03:58:32;;;;;;;14.68;6.43;;;11.70;99.90;;;;;;4966895;28;20051;-90
2023/06/06 04:00:58;;;;;;;11.40;6.15;;;11.60;99.90;;;;;;4964557;28;20043;-90
2023/06/06 04:03:26;;;;;;;11.27;4.90;;;11.70;99.90;;;;;;4952942;28;20118;-90
2023/06/06 04:08:17;;;;;;;13.10;5.82;;;11.70;99.90;;;;;;5048633;22;20078;-90
2023/06/06 04:10:43;;;;;;;11.68;5.25;;;11.70;99.90;;;;;;4991758;28;20045;-90
2023/06/06 04:13:09;;;;;;;11.00;5.25;;;11.80;99.90;;;;;;4991983;28;20042;-89
2023/06/06 04:15:35;;;;;;;13.32;6.20;;;12.20;99.90;;;;;;4990545;28;20050;-90
2023/06/06 04:18:00;;;;;;;10.13;5.47;;;11.70;99.90;;;;;;5002553;28;20392;-90
2023/06/06 04:20:27;;;;;;;14.60;7.03;;;11.90;99.90;;;;;;5007622;28;20046;-90
2023/06/06 04:22:53;;;;;;;11.32;4.57;;;11.80;99.90;;;;;;4979239;28;20046;-90
2023/06/06 04:25:19;;;;;;;8.90;5.40;;;11.80;99.90;;;;;;5005622;28;20057;-90
2023/06/06 04:27:45;;;;;;;13.63;5.65;;;11.80;99.90;;;;;;5008881;28;20069;-90
2023/06/06 04:30:22;;;;;;;9.93;4.60;;;11.80;99.90;;;;;;4994589;28;20038;-89
2023/06/06 04:32:48;;;;;;;13.50;6.47;;;11.90;99.90;;;;;;5003882;28;20045;-90
2023/06/06 04:35:17;;;;;;;13.13;6.13;;;11.90;99.90;;;;;;4983024;28;20052;-89
2023/06/06 04:37:43;;;;;;;11.10;5.13;;;11.90;99.90;;;;;;5008624;28;20362;-90
2023/06/06 04:40:10;;;;;;;13.45;5.25;;;11.90;99.90;;;;;;4970798;28;20050;-89
2023/06/06 04:42:36;;;;;;;13.20;6.10;;;11.90;99.90;;;;;;4993451;28;20481;-90
2023/06/06 04:45:06;;;;;;;9.77;4.70;;;12.00;99.90;;;;;;5013156;28;20048;-90
2023/06/06 04:47:32;;;;;;;11.02;5.97;;;12.00;99.90;;;;;;5010370;28;20494;-90
2023/06/06 04:49:58;;;;;;;13.10;5.50;;;12.00;99.90;;;;;;4993812;28;20057;-89
2023/06/06 04:52:24;;;;;;;11.40;4.68;;;12.00;99.90;;;;;;5032710;23;20065;-90
2023/06/06 04:54:51;;;;;;;10.43;5.40;;;12.00;99.90;;;;;;5010998;28;20037;-90
2023/06/06 04:57:19;;;;;;;15.50;6.22;;;12.00;99.90;;;;;;5032916;28;20048;-92
2023/06/06 04:59:56;;;;;;;15.07;5.57;;;12.00;99.90;;;;;;5029683;28;20081;-93
2023/06/06 05:02:28;;;;;;;14.00;5.40;;;12.10;99.90;;;;;;5010210;28;20099;-92
2023/06/06 05:04:56;;;;;;;9.75;4.47;;;12.10;99.90;;;;;;5014288;28;20046;-91
2023/06/06 05:07:23;;;;;;;13.27;6.25;;;12.20;99.90;;;;;;5015819;28;20042;-91
2023/06/06 05:09:56;;;;;;;14.57;5.70;;;12.20;99.90;;;;;;5006879;28;20040;-92
2023/06/06 05:12:22;;;;;;;20.27;6.18;;;12.20;99.90;;;;;;5008907;28;20492;-92
2023/06/06 05:14:51;;;;;;;11.40;5.35;;;12.20;99.90;;;;;;5025407;28;20080;-93
2023/06/06 05:17:20;;;;;;;18.23;5.93;;;12.30;99.90;;;;;;5028189;28;20112;-91
2023/06/06 05:19:49;;;;;;;13.07;5.57;;;12.30;99.90;;;;;;5006830;28;20056;-92
2023/06/06 05:22:15;;;;;;;13.80;5.43;;;12.30;99.90;;;;;;5002438;28;20046;-91
2023/06/06 05:24:43;;;;;;;11.05;5.10;;;12.30;99.90;;;;;;5009075;28;20053;-92
2023/06/06 05:27:09;;;;;;;12.65;5.38;;;12.40;99.90;;;;;;5011679;28;20050;-93
2023/06/06 05:29:36;;;;;;;16.25;5.68;;;12.40;99.90;;;;;;5041887;23;20051;-93
2023/06/06 05:32:13;;;;;;;10.40;4.35;;;12.40;99.90;;;;;;4994300;28;20038;-92
2023/06/06 05:34:39;;;;;;;12.70;5.03;;;12.50;99.90;;;;;;4998945;28;20124;-91
2023/06/06 05:37:06;;;;;;;15.75;5.32;;;12.50;99.90;;;;;;4998324;28;20038;-93
2023/06/06 05:39:31;;;;;;;11.00;4.15;;;12.50;99.90;;;;;;4996651;28;20038;-93
2023/06/06 05:41:57;;;;;;;11.98;4.28;;;12.50;99.90;;;;;;5011528;28;20038;-92
2023/06/06 05:44:23;;;;;;;9.13;5.55;;;12.60;99.90;;;;;;5003501;28;20045;-93
2023/06/06 05:46:53;;;;;;;16.30;5.38;;;12.50;99.90;;;;;;5019025;28;20037;-93
2023/06/06 05:49:20;;;;;;;11.57;5.15;;;12.60;99.90;;;;;;4998070;28;20050;-93
2023/06/06 05:51:46;;;;;;;14.50;5.72;;;12.60;99.90;;;;;;5003200;28;20050;-96
2023/06/06 05:54:15;;;;;;;18.00;5.80;;;12.60;99.90;;;;;;5011127;28;20095;-95
2023/06/06 05:59:16;;;;;;;14.25;5.75;;;12.70;99.90;;;;;;5835791;23;20271;-95
2023/06/06 06:01:43;;;;;;;14.55;5.28;;;12.70;99.90;;;;;;4994230;28;20043;-95
2023/06/06 06:04:09;;;;;;;14.60;5.35;;;12.80;99.90;;;;;;4984307;28;20074;-94
2023/06/06 06:06:37;;;;;;;12.15;5.78;;;12.80;99.90;;;;;;4976933;28;20055;-92
2023/06/06 06:09:03;;;;;;;12.98;5.28;;;12.80;99.90;;;;;;4968833;28;20046;-91
2023/06/06 06:11:29;;;;;;;14.63;6.32;;;12.90;99.90;;;;;;4965981;28;20099;-91
2023/06/06 06:13:55;;;;;;;15.13;5.43;;;12.90;99.90;;;;;;4994848;28;20035;-92
2023/06/06 06:16:20;;;;;;;15.68;4.70;;;13.00;99.90;;;;;;4990614;28;20042;-91
2023/06/06 06:18:46;;;;;;;13.82;5.53;;;13.00;99.90;;;;;;4988212;28;20070;-96
2023/06/06 06:21:12;;;;;;;11.77;4.72;;;13.10;99.90;;;;;;4988399;28;20053;-95
2023/06/06 06:23:37;;;;;;;10.15;5.00;;;13.10;99.90;;;;;;4979977;28;20076;-92
2023/06/06 06:26:03;;;;;;;14.00;6.00;;;13.20;99.90;;;;;;4981410;28;20404;-95
2023/06/06 06:28:29;;;;;;;13.60;5.65;;;13.20;99.90;;;;;;4960287;28;20060;-91
2023/06/06 06:30:55;;;;;;;11.35;4.35;;;13.20;99.90;;;;;;4985353;28;20735;-91
2023/06/06 06:33:22;;;;;;;9.18;4.30;;;13.20;99.90;;;;;;4983495;28;20054;-90
2023/06/06 06:35:49;;;;;;;9.82;4.85;;;13.30;99.90;;;;;;4994057;28;20042;-91
2023/06/06 06:38:15;;;;;;;15.23;4.80;;;13.40;99.90;;;;;;4989362;28;20056;-94
2023/06/06 06:40:40;;;;;;;10.00;4.80;;;13.50;99.90;;;;;;4970239;28;20065;-93
2023/06/06 06:43:06;;;;;;;12.32;4.65;;;13.50;99.90;;;;;;4981260;28;20138;-92
2023/06/06 06:45:32;;;;;;;15.93;6.13;;;13.60;99.90;;;;;;4984672;28;20125;-92
2023/06/06 06:47:59;;;;;;;10.55;4.72;;;13.70;99.90;;;;;;4969082;28;20047;-92
2023/06/06 06:50:25;;;;;;;10.15;4.38;;;13.60;99.90;;;;;;4968796;28;20109;-92
2023/06/06 06:52:53;;;;;;;14.95;5.13;;;13.70;99.90;;;;;;4981831;28;20500;-92
2023/06/06 06:55:19;;;;;;;9.00;4.65;;;13.70;99.90;;;;;;4985804;28;20038;-93
2023/06/06 06:57:45;;;;;;;13.82;4.97;;;13.70;99.90;;;;;;4968441;28;20039;-93
2023/06/06 07:00:15;;;;;;;11.35;4.88;;;13.80;99.90;;;;;;4966082;28;20112;-93
2023/06/06 07:02:44;;;;;;;11.80;4.68;;;13.80;99.90;;;;;;4958531;28;20053;-92
2023/06/06 07:05:16;;;;;;;11.45;4.38;;;13.90;99.90;;;;;;4969146;28;20082;-93
2023/06/06 07:07:53;;;;;;;10.02;4.30;;;14.00;99.90;;;;;;4968445;28;20125;-92
2023/06/06 07:10:20;;;;;;;12.48;4.20;;;14.10;99.90;;;;;;4991709;28;20058;-92
2023/06/06 07:12:50;;;;;;;12.00;4.50;;;14.30;99.90;;;;;;4970907;28;20069;-92
2023/06/06 07:15:17;;;;;;;9.73;4.28;;;14.40;99.90;;;;;;4959705;28;20477;-92
2023/06/06 07:17:48;;;;;;;9.23;3.72;;;14.60;99.90;;;;;;4982860;28;20038;-93
2023/06/06 07:20:14;;;;;;;12.05;4.85;;;14.80;99.90;;;;;;4982947;28;20042;-92
2023/06/06 07:22:39;;;;;;;11.77;4.57;;;15.10;99.90;;;;;;4971220;28;20394;-93
2023/06/06 07:25:06;;;;;;;11.02;4.65;;;15.40;99.90;;;;;;4985771;28;20529;-93
2023/06/06 07:27:37;;;;;;;8.80;3.50;;;15.50;99.90;;;;;;4961444;28;20046;-93
2023/06/06 07:30:12;;;;;;;12.52;4.50;;;15.50;99.90;;;;;;4978287;28;20043;-92
2023/06/06 07:32:42;;;;;;;13.52;4.25;;;15.70;99.90;;;;;;4968128;28;20066;-92
2023/06/06 07:35:13;;;;;;;9.00;3.95;;;15.90;99.90;;;;;;4968523;28;20707;-92
2023/06/06 07:37:39;;;;;;;13.68;4.07;;;16.10;99.90;;;;;;4965182;28;20055;-94
2023/06/06 07:40:08;;;;;;;11.82;4.45;;;16.30;99.90;;;;;;4991724;28;20050;-92
2023/06/06 07:42:34;;;;;;;8.18;3.30;;;16.50;99.90;;;;;;4983452;28;20042;-93
2023/06/06 07:45:00;;;;;;;8.55;3.97;;;16.70;99.90;;;;;;4970603;28;20038;-92
2023/06/06 07:47:26;;;;;;;11.05;3.35;;;16.90;99.90;;;;;;4969053;28;20049;-92
2023/06/06 07:49:52;;;;;;;15.05;4.55;;;17.10;99.90;;;;;;4981058;28;20043;-92
2023/06/06 07:52:17;;;;;;;11.10;4.07;;;17.10;99.90;;;;;;4959426;28;20031;-93
2023/06/06 07:54:43;;;;;;;11.35;4.63;;;17.10;99.90;;;;;;4986493;28;20113;-92
2023/06/06 07:57:10;;;;;;;10.93;4.32;;;17.20;99.90;;;;;;4953684;28;20505;-93
2023/06/06 07:59:36;;;;;;;11.75;4.07;;;17.20;99.90;;;;;;4978916;28;20061;-93
2023/06/06 08:02:02;;;;;;;9.32;4.47;;;17.30;99.90;;;;;;4976949;28;20059;-93
2023/06/06 08:04:28;;;;;;;9.57;3.65;;;17.30;99.90;;;;;;4973194;28;20139;-91
2023/06/06 08:06:53;;;;;;;14.05;4.57;;;17.30;99.90;;;;;;4969653;28;20042;-92
2023/06/06 08:09:20;;;;;;;12.10;4.32;;;17.30;99.90;;;;;;4979284;28;20518;-93
2023/06/06 08:11:45;;;;;;;10.82;4.40;;;17.40;99.90;;;;;;4981550;28;20042;-93
2023/06/06 08:14:11;;;;;;;9.85;4.25;;;17.50;99.90;;;;;;4962736;28;20034;-92
2023/06/06 08:16:37;;;;;;;10.75;4.57;;;17.60;99.90;;;;;;4986717;28;20046;-93
2023/06/06 08:19:04;;;;;;;8.90;3.85;;;17.60;99.90;;;;;;4970534;28;20042;-92
2023/06/06 08:21:29;;;;;;;10.82;4.63;;;17.60;99.90;;;;;;4970531;28;20133;-93
2023/06/06 08:23:57;;;;;;;13.27;4.90;;;17.70;99.90;;;;;;4974922;28;20031;-92
2023/06/06 08:26:25;;;;;;;9.43;4.65;;;17.70;99.90;;;;;;4979074;28;20046;-93
2023/06/06 08:28:51;;;;;;;10.07;4.07;;;17.70;99.90;;;;;;4959736;28;20097;-92
2023/06/06 08:31:18;;;;;;;11.75;4.35;;;17.70;99.90;;;;;;4987099;28;20037;-93
2023/06/06 08:33:45;;;;;;;8.82;4.18;;;17.80;99.90;;;;;;4972909;28;20129;-92
2023/06/06 08:36:12;;;;;;;9.82;3.88;;;17.80;99.90;;;;;;4985023;28;20044;-93
2023/06/06 08:38:38;;;;;;;8.82;4.68;;;17.80;99.90;;;;;;4979404;28;20054;-93
2023/06/06 08:41:05;;;;;;;10.70;4.25;;;17.80;99.90;;;;;;4961763;28;20054;-93
2023/06/06 08:43:36;;;;;;;8.45;4.18;;;17.90;99.90;;;;;;4980554;28;20041;-93
2023/06/06 08:46:02;;;;;;;12.85;4.43;;;18.10;99.90;;;;;;4956132;28;20489;-93
2023/06/06 08:48:29;;;;;;;11.82;5.03;;;18.10;99.90;;;;;;4972084;28;20042;-93
2023/06/06 08:50:59;;;;;;;7.00;4.35;;;18.30;99.90;;;;;;4981710;28;20035;-93
2023/06/06 08:53:26;;;;;;;10.57;3.90;;;18.40;99.90;;;;;;4972600;28;20070;-93
2023/06/06 08:55:56;;;;;;;12.85;5.05;;;18.40;99.90;;;;;;4972372;28;20053;-92
2023/06/06 08:58:22;;;;;;;8.48;4.18;;;18.50;99.90;;;;;;4977638;28;20097;-93
2023/06/06 09:00:51;;;;;;;9.45;4.10;;;18.50;99.90;;;;;;4955094;28;20050;-93
2023/06/06 09:03:20;;;;;;;10.55;4.40;;;18.60;99.90;;;;;;4989075;28;20115;-93
2023/06/06 09:05:49;;;;;;;11.98;5.50;;;18.70;99.90;;;;;;4961112;28;20066;-93
2023/06/06 09:08:17;;;;;;;9.55;4.97;;;18.70;99.90;;;;;;4963862;28;20379;-93
2023/06/06 09:10:42;;;;;;;10.40;4.63;;;18.80;99.90;;;;;;4966500;28;20043;-93
2023/06/06 09:13:08;;;;;;;11.40;5.18;;;18.80;99.90;;;;;;4967233;28;20085;-93
2023/06/06 09:15:34;;;;;;;12.55;4.78;;;18.90;99.90;;;;;;4961818;28;20047;-93
2023/06/06 09:18:00;;;;;;;13.43;4.55;;;19.00;99.90;;;;;;4971085;28;20133;-92
2023/06/06 09:20:26;;;;;;;9.10;4.93;;;19.00;99.90;;;;;;4983932;28;20122;-92
2023/06/06 09:22:53;;;;;;;10.68;4.68;;;19.20;99.90;;;;;;4989369;28;20486;-93
2023/06/06 09:25:25;;;;;;;10.70;4.80;;;19.30;99.90;;;;;;4983693;28;20097;-93
2023/06/06 09:28:01;;;;;;;13.07;6.28;;;19.30;99.90;;;;;;4980097;28;20077;-93
2023/06/06 09:30:30;;;;;;;10.00;4.32;;;19.30;99.90;;;;;;4959126;28;20051;-92
2023/06/06 09:32:58;;;;;;;11.23;5.40;;;19.30;99.90;;;;;;4967546;28;20045;-93
2023/06/06 09:35:33;;;;;;;11.20;6.13;;;19.40;99.90;;;;;;4954017;28;20055;-93
2023/06/06 09:38:17;;;;;;;11.93;5.72;;;19.40;99.90;;;;;;4960430;28;20045;-92
2023/06/06 09:40:50;;;;;;;10.95;4.90;;;19.50;99.90;;;;;;4983653;28;20043;-92
2023/06/06 09:43:22;;;;;;;11.93;5.65;;;19.60;99.90;;;;;;4960128;28;20043;-92
2023/06/06 09:45:58;;;;;;;10.63;5.40;;;19.70;99.90;;;;;;4951725;28;20105;-93
2023/06/06 09:48:28;;;;;;;11.95;5.57;;;19.70;99.90;;;;;;4981920;28;20136;-93
2023/06/06 09:50:55;;;;;;;13.13;5.32;;;19.80;99.90;;;;;;4970935;28;20121;-93
2023/06/06 09:53:25;;;;;;;12.82;5.65;;;19.80;99.90;;;;;;4966006;28;20045;-92
2023/06/06 09:55:52;;;;;;;10.85;5.32;;;19.80;99.90;;;;;;4963112;28;20042;-93
2023/06/06 09:58:21;;;;;;;12.27;5.57;;;19.90;99.90;;;;;;4971120;28;20038;-93
2023/06/06 10:00:48;;;;;;;11.00;5.45;;;19.90;99.90;;;;;;4961981;28;20078;-93
2023/06/06 10:03:22;;;;;;;12.68;5.20;;;19.90;99.90;;;;;;4971507;28;20489;-93
2023/06/06 10:05:51;;;;;;;10.23;5.13;;;19.90;99.90;;;;;;4961659;28;20054;-93
2023/06/06 10:08:19;;;;;;;11.95;5.90;;;20.00;99.90;;;;;;4964667;28;20302;-93
2023/06/06 10:10:49;;;;;;;13.05;6.07;;;20.10;99.90;;;;;;4986187;28;20051;-94
2023/06/06 10:13:18;;;;;;;10.52;6.13;;;20.10;99.90;;;;;;4992467;28;20053;-93
2023/06/06 10:15:44;;;;;;;8.90;4.40;;;20.20;99.90;;;;;;4964877;28;20129;-93
2023/06/06 10:18:10;;;;;;;9.23;5.57;;;20.20;99.90;;;;;;4981153;28;20118;-93
2023/06/06 10:20:36;;;;;;;9.32;4.93;;;20.30;99.90;;;;;;4975834;28;20072;-93
2023/06/06 10:23:03;;;;;;;9.75;5.47;;;20.30;99.90;;;;;;4967083;28;20058;-92
2023/06/06 10:25:29;;;;;;;10.18;5.70;;;20.40;99.90;;;;;;4957052;28;20489;-93
2023/06/06 10:28:12;;;;;;;9.48;5.65;;;20.40;99.90;;;;;;4958639;28;20049;-93
2023/06/06 10:30:45;;;;;;;12.85;5.65;;;20.40;99.90;;;;;;4980828;28;20101;-93
2023/06/06 10:33:41;;;;;;;12.10;6.15;;;20.50;99.90;;;;;;4951521;28;20482;-94
2023/06/06 10:36:08;;;;;;;11.95;6.18;;;20.70;99.90;;;;;;4971731;28;20050;-92
2023/06/06 10:38:34;;;;;;;9.18;4.90;;;20.70;99.90;;;;;;4992185;28;20093;-93
2023/06/06 10:41:15;;;;;;;11.45;5.88;;;20.70;99.90;;;;;;4969857;28;20049;-92
2023/06/06 10:43:46;;;;;;;13.48;5.78;;;20.70;99.90;;;;;;4964591;28;20498;-93
2023/06/06 10:46:12;;;;;;;12.68;5.95;;;20.80;99.90;;;;;;4967991;28;20042;-93
2023/06/06 10:48:45;;;;;;;12.35;5.60;;;20.90;99.90;;;;;;4954570;28;20126;-94
2023/06/06 10:51:23;;;;;;;10.82;4.95;;;20.90;99.90;;;;;;4979807;28;20038;-93
2023/06/06 10:54:21;;;;;;;11.73;6.10;;;20.90;99.90;;;;;;4985029;28;20050;-94
2023/06/06 10:56:51;;;;;;;10.13;5.72;;;21.10;99.90;;;;;;4979426;28;20552;-93
2023/06/06 10:59:20;;;;;;;16.50;7.10;;;21.10;99.90;;;;;;4958405;28;20077;-93
2023/06/06 11:01:46;;;;;;;13.13;6.63;;;21.20;99.90;;;;;;4970118;28;20065;-93
2023/06/06 11:04:23;;;;;;;11.00;6.28;;;21.20;99.90;;;;;;4970994;28;20155;-93
2023/06/06 11:06:51;;;;;;;11.68;5.68;;;21.20;99.90;;;;;;4965751;28;20063;-93
2023/06/06 11:09:29;;;;;;;13.88;6.47;;;21.30;99.90;;;;;;4964037;28;20054;-93
2023/06/06 11:12:13;;;;;;;11.63;6.15;;;21.40;99.90;;;;;;4979439;28;20117;-93
2023/06/06 11:15:01;;;;;;;12.68;5.43;;;21.50;99.90;;;;;;4981294;28;20054;-94
2023/06/06 11:17:45;;;;;;;14.20;5.97;;;21.60;99.90;;;;;;4988220;28;20038;-94
2023/06/06 11:20:19;;;;;;;13.43;5.72;;;21.70;99.90;;;;;;4951789;28;20122;-94
2023/06/06 11:23:01;;;;;;;13.95;6.38;;;21.80;99.90;;;;;;4985910;28;20039;-93
2023/06/06 11:25:31;;;;;;;10.85;5.25;;;21.80;99.90;;;;;;4985887;28;20326;-93
2023/06/06 11:27:58;;;;;;;11.52;4.65;;;21.80;99.90;;;;;;4981847;28;20094;-96
2023/06/06 11:30:24;;;;;;;9.85;4.60;;;21.80;99.90;;;;;;4994727;28;20162;-96
2023/06/06 11:32:53;;;;;;;9.90;5.38;;;21.90;99.90;;;;;;4985470;28;20477;-96
2023/06/06 11:35:20;;;;;;;14.60;5.75;;;22.00;99.90;;;;;;4974021;28;20057;-96
2023/06/06 11:37:46;;;;;;;11.85;4.50;;;22.10;99.90;;;;;;4958365;28;20073;-88
2023/06/06 11:40:12;;;;;;;9.38;4.57;;;22.20;99.90;;;;;;4985296;28;20482;-93
2023/06/06 11:42:44;;;;;;;8.20;4.53;;;22.30;99.90;;;;;;4983126;28;20035;-92
2023/06/06 11:45:17;;;;;;;11.68;4.63;;;22.30;99.90;;;;;;4984473;28;20034;-96
2023/06/06 11:47:43;;;;;;;9.60;4.30;;;22.40;99.90;;;;;;4995241;28;20038;-96
2023/06/06 11:50:10;;;;;;;10.68;4.88;;;22.50;99.90;;;;;;4998368;28;20058;-96
2023/06/06 11:52:50;;;;;;;11.55;5.78;;;22.50;99.90;;;;;;4966476;28;20076;-94
2023/06/06 11:55:17;;;;;;;13.65;6.35;;;22.50;99.90;;;;;;4966565;28;20070;-94
2023/06/06 11:57:43;;;;;;;11.20;5.20;;;22.40;99.90;;;;;;4980815;28;20126;-94
2023/06/06 12:00:10;;;;;;;11.73;5.03;;;22.50;99.90;;;;;;4957169;28;20488;-94
2023/06/06 12:02:36;;;;;;;11.20;5.10;;;22.40;99.90;;;;;;4985703;28;20034;-93
2023/06/06 12:05:03;;;;;;;13.10;5.65;;;22.50;99.90;;;;;;4971684;28;20050;-94
2023/06/06 12:07:29;;;;;;;14.88;5.35;;;22.40;99.90;;;;;;4957468;28;20073;-94
2023/06/06 12:09:59;;;;;;;11.73;5.75;;;22.40;99.90;;;;;;4971650;28;20481;-95
2023/06/06 12:12:25;;;;;;;11.50;5.05;;;22.50;99.90;;;;;;4971210;28;20134;-95
2023/06/06 12:14:58;;;;;;;8.88;4.85;;;22.60;99.90;;;;;;4966918;28;20050;-96
2023/06/06 12:17:26;;;;;;;11.03;5.00;;;22.70;99.90;;;;;;4987117;28;20057;-95
2023/06/06 12:19:55;;;;;;;13.88;4.93;;;22.70;99.90;;;;;;4971476;28;20038;-95
2023/06/06 12:22:32;;;;;;;11.00;5.22;;;22.80;99.90;;;;;;4969813;28;20089;-94
2023/06/06 12:24:58;;;;;;;9.82;5.20;;;22.90;99.90;;;;;;4976427;28;20042;-96
2023/06/06 12:27:27;;;;;;;14.73;5.20;;;22.90;99.90;;;;;;4972306;28;20132;-95
2023/06/06 12:29:55;;;;;;;15.30;4.93;;;23.00;99.90;;;;;;4949418;28;20038;-95
2023/06/06 12:32:29;;;;;;;9.75;5.20;;;22.90;99.90;;;;;;4984016;28;20045;-96
2023/06/06 12:35:01;;;;;;;11.93;5.50;;;22.80;99.90;;;;;;4985798;28;20042;-93
2023/06/06 12:37:42;;;;;;;8.80;4.65;;;22.70;99.90;;;;;;4985146;28;20129;-95
2023/06/06 12:40:33;;;;;;;10.45;4.97;;;22.70;99.90;;;;;;4966457;28;20397;-92
2023/06/06 12:43:03;;;;;;;15.88;5.53;;;22.80;99.70;;;;;;4978749;28;20109;-94
2023/06/06 12:45:28;;;;;;;12.38;4.75;;;22.80;99.70;;;;;;4981606;28;20047;-94
2023/06/06 12:47:57;;;;;;;10.18;5.03;;;22.90;99.70;;;;;;4961463;28;20046;-92
2023/06/06 12:50:23;;;;;;;13.40;5.03;;;22.90;99.40;;;;;;4980545;28;20034;-95